Time;durP1;ratioP1;P1;durP2;ratioP2;P2;SDS_P1;SDS_P2;PMS_P1;PMS_P2;Temp;Humidity;BMP_temperature;BMP_pressure;BME280_temperature;BME280_humidity;BME280_pressure;Samples;Min_cycle;Max_cycle;Signal;HPM_P1;HPM_P2
2022/03/30 00:01:00;;;;;;;2.40;1.90;;;-3.00;97.50;;;;;;6184066;28;20296;-80
2022/03/30 00:04:08;;;;;;;3.03;1.73;;;-3.00;97.70;;;;;;6184253;28;20295;-79
2022/03/30 00:07:14;;;;;;;2.73;1.93;;;-3.00;97.20;;;;;;6184210;28;20555;-80
2022/03/30 00:10:19;;;;;;;4.27;1.50;;;-3.00;97.00;;;;;;6184877;28;20308;-80
2022/03/30 00:13:25;;;;;;;1.40;1.33;;;-3.10;96.80;;;;;;6184320;28;20293;-80
2022/03/30 00:16:30;;;;;;;2.30;1.67;;;-3.00;96.60;;;;;;6184757;28;20292;-80
2022/03/30 00:19:37;;;;;;;1.73;1.50;;;-3.00;97.30;;;;;;6184211;28;20305;-80
2022/03/30 00:22:43;;;;;;;1.30;1.30;;;-3.00;97.30;;;;;;6166024;28;20300;-80
2022/03/30 00:25:48;;;;;;;1.63;1.53;;;-3.00;97.20;;;;;;6184618;28;20294;-79
2022/03/30 00:28:54;;;;;;;2.97;1.80;;;-3.10;97.10;;;;;;6184039;28;20490;-80
2022/03/30 00:32:00;;;;;;;2.83;1.93;;;-3.10;97.50;;;;;;6183865;28;20286;-80
2022/03/30 00:35:08;;;;;;;2.93;1.60;;;-3.10;97.70;;;;;;6167441;28;20300;-80
2022/03/30 00:38:15;;;;;;;1.60;1.60;;;-3.10;97.50;;;;;;6183668;28;20592;-80
2022/03/30 00:41:21;;;;;;;2.17;1.80;;;-3.20;97.70;;;;;;6184514;28;20285;-80
2022/03/30 00:44:26;;;;;;;2.20;1.60;;;-3.10;97.60;;;;;;6183289;28;20305;-80
2022/03/30 00:47:31;;;;;;;1.37;1.37;;;-3.20;97.90;;;;;;6184204;28;20294;-80
2022/03/30 00:50:38;;;;;;;1.87;1.77;;;-3.20;97.90;;;;;;6184739;28;20304;-80
2022/03/30 00:53:44;;;;;;;1.80;1.80;;;-3.20;98.00;;;;;;6187199;28;20474;-79
2022/03/30 00:56:49;;;;;;;1.43;1.43;;;-3.20;97.70;;;;;;6188635;28;20598;-81
2022/03/30 00:59:55;;;;;;;2.40;1.60;;;-3.20;97.80;;;;;;6187596;28;20300;-80
2022/03/30 01:03:00;;;;;;;5.00;1.73;;;-3.20;97.50;;;;;;6187990;28;20486;-80
2022/03/30 01:06:07;;;;;;;2.70;1.63;;;-3.20;97.20;;;;;;6188531;28;20317;-79
2022/03/30 01:09:15;;;;;;;1.60;1.50;;;-3.20;97.30;;;;;;6170721;28;20300;-80
2022/03/30 01:12:20;;;;;;;2.73;1.63;;;-3.30;97.00;;;;;;6163742;28;20318;-80
2022/03/30 01:15:26;;;;;;;1.70;1.60;;;-3.30;97.00;;;;;;6147196;29;20297;-80
2022/03/30 01:18:36;;;;;;;2.87;1.97;;;-3.30;96.90;;;;;;6163348;28;20296;-80
2022/03/30 01:21:45;;;;;;;1.30;1.30;;;-3.30;96.70;;;;;;6163900;29;20287;-80
2022/03/30 01:24:51;;;;;;;3.47;1.57;;;-3.30;96.80;;;;;;6163348;28;20301;-79
2022/03/30 01:27:56;;;;;;;2.60;1.70;;;-3.30;96.70;;;;;;6162850;28;20324;-80
2022/03/30 01:34:26;;;;;;;1.77;1.57;;;-3.30;96.70;;;;;;6162882;28;20598;-80
2022/03/30 01:37:33;;;;;;;7.93;1.80;;;-3.30;96.60;;;;;;6145334;28;20296;-80
2022/03/30 01:40:39;;;;;;;1.90;1.80;;;-3.40;96.70;;;;;;6163617;29;20574;-80
2022/03/30 01:43:44;;;;;;;2.00;1.30;;;-3.30;96.90;;;;;;6162922;29;20304;-80
2022/03/30 01:46:50;;;;;;;11.23;1.43;;;-3.30;96.40;;;;;;6163754;29;20301;-80
2022/03/30 01:49:55;;;;;;;6.03;1.70;;;-3.30;96.10;;;;;;6162840;29;20308;-80
2022/03/30 01:53:02;;;;;;;4.63;1.60;;;-3.30;96.10;;;;;;6145311;29;20297;-80
2022/03/30 01:56:07;;;;;;;2.73;1.70;;;-3.40;96.20;;;;;;6163344;29;20585;-80
2022/03/30 01:59:13;;;;;;;8.53;1.73;;;-3.40;96.30;;;;;;6162826;29;20475;-80
2022/03/30 02:02:19;;;;;;;1.53;1.43;;;-3.40;96.20;;;;;;6162073;29;20468;-80
2022/03/30 02:05:24;;;;;;;2.63;1.50;;;-3.30;96.20;;;;;;6162070;28;20317;-80
2022/03/30 02:08:31;;;;;;;4.67;1.43;;;-3.40;96.10;;;;;;6162182;29;20293;-80
2022/03/30 02:11:37;;;;;;;4.47;1.60;;;-3.30;96.60;;;;;;6181286;28;20292;-80
2022/03/30 02:14:42;;;;;;;3.83;1.60;;;-3.30;96.40;;;;;;6186175;28;20301;-81
2022/03/30 02:17:48;;;;;;;1.57;1.50;;;-3.30;96.50;;;;;;6186255;28;20394;-80
2022/03/30 02:20:54;;;;;;;2.47;1.73;;;-3.30;96.50;;;;;;6185977;28;20300;-81
2022/03/30 02:24:01;;;;;;;3.10;1.40;;;-3.30;96.60;;;;;;6167884;28;20617;-81
2022/03/30 02:27:07;;;;;;;2.80;1.67;;;-3.30;96.40;;;;;;6185846;28;20292;-80
2022/03/30 02:30:13;;;;;;;4.20;2.17;;;-3.30;96.40;;;;;;6186508;28;20293;-81
2022/03/30 02:33:19;;;;;;;2.13;1.90;;;-3.30;96.90;;;;;;6185846;28;20352;-80
2022/03/30 02:36:25;;;;;;;3.90;1.40;;;-3.30;96.50;;;;;;6169101;28;20309;-80
2022/03/30 02:39:31;;;;;;;1.47;1.40;;;-3.30;96.50;;;;;;6185272;28;20592;-80
2022/03/30 02:42:37;;;;;;;1.30;1.30;;;-3.40;96.60;;;;;;6185897;28;20300;-80
2022/03/30 02:45:44;;;;;;;1.73;1.70;;;-3.40;96.60;;;;;;6186040;28;20297;-80
2022/03/30 02:48:50;;;;;;;3.33;1.50;;;-3.30;96.80;;;;;;6184988;28;20316;-80
2022/03/30 02:51:55;;;;;;;1.73;1.53;;;-3.30;96.80;;;;;;6185445;28;20295;-80
2022/03/30 02:55:02;;;;;;;8.07;1.80;;;-3.40;96.70;;;;;;6185007;28;20287;-80
2022/03/30 02:58:08;;;;;;;1.83;1.70;;;-3.40;96.70;;;;;;6185408;28;20317;-79
2022/03/30 03:01:13;;;;;;;1.30;1.30;;;-3.40;96.70;;;;;;6185243;28;20299;-79
2022/03/30 03:04:19;;;;;;;3.90;1.70;;;-3.40;97.00;;;;;;6183950;28;20314;-79
2022/03/30 03:07:24;;;;;;;1.43;1.43;;;-3.40;97.20;;;;;;6184549;28;20311;-79
2022/03/30 03:10:32;;;;;;;1.70;1.60;;;-3.40;97.00;;;;;;6185276;28;20477;-79
2022/03/30 03:13:38;;;;;;;1.70;1.40;;;-3.40;96.80;;;;;;6184874;28;20302;-79
2022/03/30 03:16:43;;;;;;;1.50;1.50;;;-3.50;96.90;;;;;;6185220;28;20300;-79
2022/03/30 03:19:48;;;;;;;3.23;1.27;;;-3.50;96.60;;;;;;6184934;28;20471;-79
2022/03/30 03:22:54;;;;;;;1.47;1.47;;;-3.50;96.70;;;;;;6184212;28;20300;-79
2022/03/30 03:26:01;;;;;;;1.30;1.30;;;-3.50;96.60;;;;;;6185159;28;20291;-79
2022/03/30 03:29:06;;;;;;;2.10;1.30;;;-3.50;96.70;;;;;;6185177;28;20295;-79
2022/03/30 03:32:11;;;;;;;5.53;1.40;;;-3.50;96.70;;;;;;6185114;28;20296;-80
2022/03/30 03:35:16;;;;;;;1.63;1.47;;;-3.60;96.80;;;;;;6185275;28;20544;-79
2022/03/30 03:38:22;;;;;;;3.00;1.37;;;-3.50;96.70;;;;;;6184544;28;20292;-80
2022/03/30 03:41:29;;;;;;;3.10;1.60;;;-3.50;97.10;;;;;;6184843;28;20307;-79
2022/03/30 03:44:34;;;;;;;7.40;1.57;;;-3.50;96.70;;;;;;6184293;28;20301;-79
2022/03/30 03:47:41;;;;;;;2.83;1.40;;;-3.60;96.70;;;;;;6184576;28;20291;-79
2022/03/30 03:50:47;;;;;;;4.30;1.50;;;-3.50;96.90;;;;;;6185020;28;20321;-79
2022/03/30 03:53:51;;;;;;;4.90;1.57;;;-3.50;97.00;;;;;;6167317;28;20446;-79
2022/03/30 03:56:58;;;;;;;2.97;1.40;;;-3.50;97.00;;;;;;6184703;28;20312;-79
2022/03/30 04:00:06;;;;;;;3.70;1.70;;;-3.50;97.40;;;;;;6184029;28;20292;-79
2022/03/30 04:03:20;;;;;;;4.33;1.90;;;-3.50;97.00;;;;;;6184141;28;20296;-79
2022/03/30 04:06:25;;;;;;;4.80;1.63;;;-3.60;97.00;;;;;;6184761;28;20291;-79
2022/03/30 04:09:30;;;;;;;2.63;1.60;;;-3.60;97.20;;;;;;6183975;28;20295;-80
2022/03/30 04:12:38;;;;;;;1.90;1.50;;;-3.60;97.70;;;;;;6184165;28;20303;-80
2022/03/30 04:15:43;;;;;;;1.70;1.60;;;-3.60;98.20;;;;;;6184621;28;20296;-80
2022/03/30 04:18:49;;;;;;;1.77;1.67;;;-3.60;98.60;;;;;;6183624;28;20304;-80
2022/03/30 04:21:54;;;;;;;10.13;1.60;;;-3.60;97.90;;;;;;6183817;28;20320;-80
2022/03/30 04:24:59;;;;;;;4.90;1.80;;;-3.60;98.10;;;;;;6184059;28;20292;-80
2022/03/30 04:28:07;;;;;;;2.33;1.60;;;-3.60;98.20;;;;;;6186767;28;20305;-81
2022/03/30 04:31:13;;;;;;;4.43;1.67;;;-3.60;98.40;;;;;;6172014;28;20296;-80
2022/03/30 04:34:18;;;;;;;8.80;1.30;;;-3.60;98.70;;;;;;6171054;28;20296;-79
2022/03/30 04:37:24;;;;;;;1.83;1.80;;;-3.60;98.70;;;;;;6188254;28;20295;-79
2022/03/30 04:40:30;;;;;;;4.80;1.77;;;-3.60;98.50;;;;;;6188795;28;20283;-80
2022/03/30 04:43:37;;;;;;;1.83;1.70;;;-3.60;98.60;;;;;;6170918;28;20454;-80
2022/03/30 04:46:43;;;;;;;2.27;1.73;;;-3.50;98.70;;;;;;6190146;28;20555;-80
2022/03/30 04:49:48;;;;;;;6.63;1.80;;;-3.50;99.10;;;;;;6188918;28;20305;-80
2022/03/30 04:52:54;;;;;;;1.70;1.57;;;-3.50;99.10;;;;;;6188388;28;20300;-79
2022/03/30 04:55:59;;;;;;;10.70;1.93;;;-3.40;99.00;;;;;;6188756;28;20298;-79
2022/03/30 04:59:06;;;;;;;12.73;2.03;;;-3.40;99.10;;;;;;6187754;28;20291;-79
2022/03/30 05:02:12;;;;;;;7.73;2.10;;;-3.40;99.60;;;;;;6188008;28;20492;-79
2022/03/30 05:05:18;;;;;;;6.20;2.10;;;-3.40;99.90;;;;;;6188039;28;20480;-81
2022/03/30 05:08:23;;;;;;;4.80;1.83;;;-3.30;99.90;;;;;;6187532;28;20292;-79
2022/03/30 05:11:28;;;;;;;8.97;2.00;;;-3.30;99.90;;;;;;6170102;28;20292;-80
2022/03/30 05:14:35;;;;;;;1.53;1.53;;;-3.20;99.90;;;;;;6187085;28;20588;-80
2022/03/30 05:17:44;;;;;;;4.70;1.63;;;-3.10;99.90;;;;;;6187018;28;20490;-80
2022/03/30 05:20:50;;;;;;;2.07;1.30;;;-3.10;99.90;;;;;;6187683;28;20297;-81
2022/03/30 05:23:55;;;;;;;1.47;1.47;;;-3.00;99.90;;;;;;6169911;28;20293;-79
2022/03/30 05:27:01;;;;;;;1.70;1.30;;;-3.00;99.90;;;;;;6186840;28;20297;-84
2022/03/30 05:30:13;;;;;;;1.50;1.40;;;-2.90;99.90;;;;;;6156478;28;20285;-78
2022/03/30 05:33:18;;;;;;;1.20;1.20;;;-2.80;99.90;;;;;;6170207;28;20331;-79
2022/03/30 05:36:24;;;;;;;3.10;1.20;;;-2.80;99.70;;;;;;6170531;28;20474;-80
2022/03/30 05:39:31;;;;;;;1.67;1.20;;;-2.70;99.10;;;;;;6185582;28;20311;-80
2022/03/30 05:42:36;;;;;;;3.33;1.40;;;-2.70;98.40;;;;;;6169061;28;20487;-79
2022/03/30 05:45:43;;;;;;;1.40;1.30;;;-2.70;98.70;;;;;;6187000;28;20305;-80
2022/03/30 05:48:49;;;;;;;1.50;1.50;;;-2.60;98.40;;;;;;6186301;28;20309;-83
2022/03/30 05:51:54;;;;;;;1.30;1.30;;;-2.60;98.30;;;;;;6166660;28;20318;-80
2022/03/30 05:54:59;;;;;;;4.00;1.30;;;-2.60;98.00;;;;;;6186092;28;20292;-79
2022/03/30 05:58:06;;;;;;;1.40;1.40;;;-2.60;97.60;;;;;;6169506;28;20290;-79
2022/03/30 06:01:14;;;;;;;1.30;1.30;;;-2.50;97.70;;;;;;6187017;28;20297;-79
2022/03/30 06:04:19;;;;;;;3.60;1.57;;;-2.50;96.90;;;;;;6185632;28;20301;-79
2022/03/30 06:07:25;;;;;;;1.33;1.10;;;-2.40;96.90;;;;;;6185361;28;20298;-79
2022/03/30 06:10:30;;;;;;;1.20;1.20;;;-2.40;95.30;;;;;;6169049;28;20292;-79
2022/03/30 06:13:36;;;;;;;2.30;1.20;;;-2.30;95.10;;;;;;6185594;28;20304;-79
2022/03/30 06:16:43;;;;;;;1.33;1.10;;;-2.30;93.80;;;;;;6169449;28;20296;-79
2022/03/30 06:19:52;;;;;;;4.30;1.10;;;-2.30;92.70;;;;;;6168919;28;20299;-79
2022/03/30 06:22:59;;;;;;;1.20;1.20;;;-2.30;91.30;;;;;;6184611;28;20469;-79
2022/03/30 06:26:06;;;;;;;1.30;1.20;;;-2.30;92.50;;;;;;6159529;28;20297;-79
2022/03/30 06:29:12;;;;;;;1.40;1.40;;;-2.20;91.10;;;;;;6186031;28;20296;-79
2022/03/30 06:32:19;;;;;;;1.30;1.30;;;-2.10;90.40;;;;;;6185647;28;20312;-79
2022/03/30 06:35:25;;;;;;;3.30;1.10;;;-2.10;90.30;;;;;;6186083;28;20300;-79
2022/03/30 06:38:30;;;;;;;1.20;1.20;;;-2.00;90.40;;;;;;6168287;28;20297;-79
2022/03/30 06:41:36;;;;;;;1.30;1.30;;;-2.00;88.00;;;;;;6185377;28;20375;-79
2022/03/30 06:44:41;;;;;;;2.23;1.30;;;-1.90;88.50;;;;;;6185728;28;20305;-79
2022/03/30 06:47:48;;;;;;;2.10;1.10;;;-1.90;91.00;;;;;;6168161;28;20296;-79
2022/03/30 06:50:53;;;;;;;1.07;1.07;;;-1.80;90.60;;;;;;6185522;28;20294;-79
2022/03/30 06:53:59;;;;;;;1.20;1.10;;;-1.70;89.90;;;;;;6185369;28;20308;-79
2022/03/30 06:57:05;;;;;;;1.30;1.30;;;-1.60;88.40;;;;;;6167803;28;20293;-80
2022/03/30 07:00:14;;;;;;;3.90;1.23;;;-1.50;90.20;;;;;;6185198;28;20434;-79
2022/03/30 07:03:22;;;;;;;1.17;1.17;;;-1.40;85.50;;;;;;6184279;28;20299;-79
2022/03/30 07:06:27;;;;;;;1.20;1.17;;;-1.30;82.60;;;;;;6169051;28;20297;-79
2022/03/30 07:12:55;;;;;;;1.30;1.30;;;-1.20;84.20;;;;;;6181181;28;20297;-79
2022/03/30 07:16:02;;;;;;;2.07;1.23;;;-1.10;86.90;;;;;;6168062;28;20310;-79
2022/03/30 07:19:09;;;;;;;1.70;1.60;;;-1.10;89.50;;;;;;6151737;28;20304;-80
2022/03/30 07:22:15;;;;;;;2.63;1.00;;;-1.10;88.00;;;;;;6166925;28;20298;-79
2022/03/30 07:25:22;;;;;;;1.20;1.00;;;-1.10;85.20;;;;;;6184659;28;20319;-78
2022/03/30 07:28:29;;;;;;;1.83;1.03;;;-1.10;82.70;;;;;;6184550;28;20314;-79
2022/03/30 07:31:35;;;;;;;1.70;1.10;;;-1.10;84.20;;;;;;6184669;28;20574;-80
2022/03/30 07:34:41;;;;;;;1.80;1.00;;;-1.00;86.00;;;;;;6167319;28;20328;-79
2022/03/30 07:37:48;;;;;;;2.77;1.20;;;-1.00;85.60;;;;;;6184456;28;20294;-79
2022/03/30 07:40:54;;;;;;;1.10;1.10;;;-1.00;86.00;;;;;;6184596;28;20294;-79
2022/03/30 07:43:59;;;;;;;1.07;1.07;;;-1.00;88.10;;;;;;6184144;28;20297;-80
2022/03/30 07:47:05;;;;;;;1.20;1.10;;;-1.00;85.50;;;;;;6184013;28;20302;-80
2022/03/30 07:50:13;;;;;;;1.10;1.10;;;-1.00;84.90;;;;;;6167683;28;20291;-79
2022/03/30 07:53:19;;;;;;;0.97;0.97;;;-0.90;83.10;;;;;;6184482;28;20295;-79
2022/03/30 07:56:25;;;;;;;4.13;1.03;;;-1.00;81.80;;;;;;6167276;28;20297;-79
2022/03/30 07:59:31;;;;;;;3.80;1.23;;;-0.90;84.00;;;;;;6167117;28;20299;-79
2022/03/30 08:02:36;;;;;;;2.73;1.50;;;-0.90;84.20;;;;;;6185851;28;20360;-79
2022/03/30 08:05:43;;;;;;;1.00;1.00;;;-0.90;81.30;;;;;;6188949;28;20600;-79
2022/03/30 08:08:49;;;;;;;1.10;1.10;;;-0.90;78.70;;;;;;6189117;28;20299;-79
2022/03/30 08:11:55;;;;;;;1.80;0.90;;;-0.80;80.10;;;;;;6172520;28;20300;-79
2022/03/30 08:15:04;;;;;;;2.93;1.10;;;-0.80;81.80;;;;;;6188642;28;20566;-79
2022/03/30 08:18:15;;;;;;;1.07;1.07;;;-0.70;79.30;;;;;;6189074;28;20582;-80
2022/03/30 08:24:46;;;;;;;1.13;1.10;;;-0.70;78.30;;;;;;6188984;28;20306;-80
2022/03/30 08:27:51;;;;;;;3.70;1.33;;;-0.70;80.80;;;;;;6188626;28;20300;-79
2022/03/30 08:30:57;;;;;;;4.00;1.33;;;-0.60;76.10;;;;;;6188978;28;20294;-79
2022/03/30 08:34:03;;;;;;;1.37;1.37;;;-0.60;77.60;;;;;;6188332;28;20314;-80
2022/03/30 08:37:12;;;;;;;1.33;1.07;;;-0.50;75.50;;;;;;6188286;28;20303;-80
2022/03/30 08:40:17;;;;;;;1.00;1.00;;;-0.50;81.70;;;;;;6189009;28;20290;-80
2022/03/30 08:43:24;;;;;;;4.03;1.10;;;-0.40;83.00;;;;;;6171341;28;20294;-80
2022/03/30 08:46:29;;;;;;;1.13;1.13;;;-0.40;80.70;;;;;;6188982;28;20299;-80
2022/03/30 08:49:37;;;;;;;1.13;1.13;;;-0.30;79.40;;;;;;6171112;28;20295;-80
2022/03/30 08:52:45;;;;;;;1.90;1.20;;;-0.30;81.30;;;;;;6187825;28;20491;-80
2022/03/30 08:55:50;;;;;;;4.77;1.13;;;-0.20;77.60;;;;;;6188537;28;20577;-80
2022/03/30 08:59:01;;;;;;;3.60;1.27;;;-0.30;80.40;;;;;;6187979;28;20587;-80
2022/03/30 09:02:09;;;;;;;1.23;1.20;;;-0.20;79.20;;;;;;6187719;28;20298;-80
2022/03/30 09:05:19;;;;;;;1.00;1.00;;;-0.20;81.30;;;;;;6188053;28;20450;-80
2022/03/30 09:08:27;;;;;;;1.13;1.03;;;-0.20;81.70;;;;;;6187739;28;20300;-81
2022/03/30 09:11:44;;;;;;;3.43;1.17;;;-0.20;82.70;;;;;;6188030;28;20300;-80
2022/03/30 09:15:01;;;;;;;1.50;1.13;;;-0.10;86.30;;;;;;6187304;28;20301;-80
2022/03/30 09:18:26;;;;;;;1.00;1.00;;;0.00;85.00;;;;;;6187275;28;20301;-80
2022/03/30 09:21:42;;;;;;;1.73;1.00;;;0.00;82.90;;;;;;6170319;28;20467;-79
2022/03/30 09:24:48;;;;;;;1.20;1.13;;;0.10;78.90;;;;;;6187403;28;20301;-79
2022/03/30 09:27:56;;;;;;;0.93;0.93;;;0.20;80.50;;;;;;6187659;28;20305;-80
2022/03/30 09:31:01;;;;;;;1.80;0.90;;;0.10;81.00;;;;;;6187540;28;20288;-80
2022/03/30 09:34:09;;;;;;;1.00;1.00;;;0.10;81.60;;;;;;6187248;28;20390;-80
2022/03/30 09:37:15;;;;;;;1.27;1.17;;;0.20;81.90;;;;;;6187569;28;20306;-80
2022/03/30 09:40:35;;;;;;;0.90;0.90;;;0.20;78.40;;;;;;6187772;28;20290;-80
2022/03/30 09:43:41;;;;;;;1.10;1.10;;;0.30;80.20;;;;;;6169073;28;20575;-79
2022/03/30 09:46:55;;;;;;;1.50;1.10;;;0.30;82.10;;;;;;6187700;28;20571;-80
2022/03/30 09:50:01;;;;;;;1.20;1.20;;;0.30;81.50;;;;;;6186443;28;20297;-80
2022/03/30 09:53:14;;;;;;;4.73;1.73;;;0.30;83.20;;;;;;6169404;28;20314;-80
2022/03/30 09:56:23;;;;;;;1.00;1.00;;;0.30;83.40;;;;;;6169570;28;20307;-80
2022/03/30 09:59:31;;;;;;;2.03;1.17;;;0.30;83.50;;;;;;6186759;28;20296;-80
2022/03/30 10:02:39;;;;;;;1.00;1.00;;;0.40;82.90;;;;;;6186137;28;20315;-79
2022/03/30 10:05:45;;;;;;;1.00;1.00;;;0.40;82.70;;;;;;6186237;28;20297;-79
2022/03/30 10:08:52;;;;;;;1.00;1.00;;;0.50;82.00;;;;;;6186068;28;20299;-79
2022/03/30 10:11:59;;;;;;;1.30;1.20;;;0.50;80.90;;;;;;6186394;28;20312;-80
2022/03/30 10:15:06;;;;;;;4.23;1.10;;;0.60;81.30;;;;;;6169428;28;20296;-80
2022/03/30 10:18:13;;;;;;;1.50;1.40;;;0.60;75.30;;;;;;6185422;28;20306;-80
2022/03/30 10:21:23;;;;;;;1.93;1.10;;;0.70;74.80;;;;;;6186000;28;20297;-80
2022/03/30 10:24:57;;;;;;;1.30;1.30;;;0.70;72.90;;;;;;6184925;28;20466;-80
2022/03/30 10:28:18;;;;;;;2.73;1.30;;;0.90;73.90;;;;;;6117666;28;20304;-80
2022/03/30 10:31:25;;;;;;;0.87;0.87;;;0.90;71.80;;;;;;6186052;28;20297;-79
2022/03/30 10:34:30;;;;;;;1.10;1.10;;;1.00;72.40;;;;;;6185458;28;20297;-80
2022/03/30 10:37:38;;;;;;;7.50;1.40;;;1.00;70.10;;;;;;6185858;28;20309;-80
2022/03/30 10:40:45;;;;;;;1.40;1.30;;;1.00;68.50;;;;;;6152511;28;20592;-79
2022/03/30 10:43:51;;;;;;;1.30;1.30;;;1.10;69.40;;;;;;6185008;28;20305;-80
2022/03/30 10:47:20;;;;;;;1.20;1.20;;;1.20;68.50;;;;;;6185545;28;20612;-80
2022/03/30 10:50:34;;;;;;;1.10;1.10;;;1.20;69.30;;;;;;6185948;28;20295;-80
2022/03/30 10:53:47;;;;;;;2.40;1.20;;;1.30;68.10;;;;;;6184882;28;20584;-82
2022/03/30 10:56:53;;;;;;;1.30;1.30;;;1.30;66.60;;;;;;6177701;28;20591;-79
2022/03/30 11:00:19;;;;;;;1.90;1.30;;;1.40;65.50;;;;;;6186429;28;20294;-79
2022/03/30 11:03:26;;;;;;;5.90;1.10;;;1.40;65.80;;;;;;6167787;28;20289;-79
2022/03/30 11:06:35;;;;;;;1.37;1.13;;;1.50;65.50;;;;;;6185174;28;20293;-80
2022/03/30 11:09:42;;;;;;;1.30;1.20;;;1.50;64.50;;;;;;6184227;28;20289;-80
2022/03/30 11:13:02;;;;;;;1.00;1.00;;;1.60;63.40;;;;;;6184375;28;20470;-80
2022/03/30 11:16:13;;;;;;;4.33;1.20;;;1.70;61.70;;;;;;6185254;28;20294;-81
2022/03/30 11:19:22;;;;;;;1.10;1.10;;;1.70;61.90;;;;;;6167241;28;20297;-80
2022/03/30 11:22:33;;;;;;;1.13;1.03;;;1.70;59.80;;;;;;6184411;28;20402;-79
2022/03/30 11:25:52;;;;;;;1.33;1.00;;;1.80;59.20;;;;;;6184764;28;20289;-80
2022/03/30 11:28:57;;;;;;;1.03;1.00;;;1.90;58.30;;;;;;6184338;28;20297;-80
2022/03/30 11:32:56;;;;;;;7.50;1.00;;;2.00;59.00;;;;;;6184679;28;20295;-80
2022/03/30 11:36:04;;;;;;;1.00;1.00;;;2.00;58.20;;;;;;6166957;28;20301;-81
2022/03/30 11:39:11;;;;;;;1.00;1.00;;;2.20;58.90;;;;;;6183973;28;20290;-80
2022/03/30 11:42:19;;;;;;;2.53;1.00;;;2.30;57.90;;;;;;6167085;28;20296;-80
2022/03/30 11:45:27;;;;;;;1.10;1.10;;;2.30;56.50;;;;;;6177018;28;20286;-81
2022/03/30 11:48:40;;;;;;;2.00;0.97;;;2.30;56.30;;;;;;6184537;28;20304;-80
2022/03/30 11:51:56;;;;;;;1.80;0.93;;;2.40;55.70;;;;;;6184646;28;20453;-80
2022/03/30 11:55:01;;;;;;;1.00;1.00;;;2.50;56.00;;;;;;6184467;28;20292;-80
2022/03/30 11:58:07;;;;;;;2.10;1.00;;;2.70;54.90;;;;;;6184105;28;20298;-81
2022/03/30 12:01:15;;;;;;;1.37;1.07;;;2.80;53.80;;;;;;6184329;28;20581;-81
2022/03/30 12:04:22;;;;;;;0.93;0.93;;;2.90;53.20;;;;;;6183926;28;20307;-80
2022/03/30 12:07:28;;;;;;;2.57;1.00;;;2.90;51.40;;;;;;6184225;28;20295;-80
2022/03/30 12:10:33;;;;;;;2.47;1.00;;;3.00;52.70;;;;;;6184391;28;20295;-81
2022/03/30 12:13:39;;;;;;;0.90;0.90;;;3.10;52.30;;;;;;6183973;28;20291;-81
2022/03/30 12:16:44;;;;;;;1.00;1.00;;;3.20;51.80;;;;;;6184321;28;20299;-81
2022/03/30 12:19:52;;;;;;;0.97;0.97;;;3.30;50.30;;;;;;6184302;28;20305;-82
2022/03/30 12:23:00;;;;;;;1.03;1.00;;;3.20;50.20;;;;;;6183806;28;20573;-79
2022/03/30 12:26:15;;;;;;;1.17;0.70;;;3.40;50.20;;;;;;6185009;28;20293;-82
2022/03/30 12:29:21;;;;;;;1.03;1.00;;;3.50;49.00;;;;;;6184253;28;20300;-81
2022/03/30 12:32:27;;;;;;;1.00;1.00;;;3.70;48.30;;;;;;6166570;28;20512;-80
2022/03/30 12:35:38;;;;;;;0.83;0.83;;;3.60;48.50;;;;;;6184552;28;20294;-81
2022/03/30 12:38:43;;;;;;;4.83;1.00;;;3.40;47.00;;;;;;6166338;28;20297;-81
2022/03/30 12:42:00;;;;;;;1.17;0.80;;;3.30;47.00;;;;;;6183905;28;20303;-80
2022/03/30 12:45:10;;;;;;;0.90;0.90;;;3.40;47.50;;;;;;6183798;28;20289;-81
2022/03/30 12:48:17;;;;;;;0.97;0.97;;;3.50;47.10;;;;;;6185184;28;20303;-81
2022/03/30 12:51:25;;;;;;;0.80;0.80;;;3.50;46.50;;;;;;6188706;28;20289;-81
2022/03/30 12:54:31;;;;;;;3.03;1.00;;;3.70;46.10;;;;;;6187895;28;20289;-81
2022/03/30 12:57:36;;;;;;;1.00;0.90;;;3.50;46.00;;;;;;6170545;28;20298;-81
2022/03/30 13:00:44;;;;;;;2.00;1.00;;;3.50;45.60;;;;;;6188156;28;20300;-81
2022/03/30 13:03:52;;;;;;;0.90;0.90;;;3.60;46.20;;;;;;6188329;28;20301;-81
2022/03/30 13:07:17;;;;;;;1.03;1.00;;;3.70;46.00;;;;;;6188272;28;20301;-81
2022/03/30 13:10:23;;;;;;;1.60;1.00;;;3.70;43.80;;;;;;6179615;28;20298;-81
2022/03/30 13:13:31;;;;;;;1.20;0.90;;;3.70;42.40;;;;;;6180354;28;20589;-81
2022/03/30 13:16:37;;;;;;;1.33;1.10;;;3.90;43.30;;;;;;6170683;28;20296;-81
2022/03/30 13:19:43;;;;;;;1.20;1.10;;;4.00;41.80;;;;;;6186994;28;20301;-81
2022/03/30 13:22:56;;;;;;;0.90;0.90;;;4.00;43.10;;;;;;6186739;28;20313;-81
2022/03/30 13:26:01;;;;;;;2.97;1.10;;;3.80;41.80;;;;;;6187579;28;20293;-81
2022/03/30 13:29:08;;;;;;;1.00;1.00;;;3.50;42.70;;;;;;6187275;28;20293;-81
2022/03/30 13:32:14;;;;;;;1.50;1.00;;;3.60;42.60;;;;;;6169818;28;20289;-81
2022/03/30 13:35:19;;;;;;;1.00;0.90;;;3.60;42.40;;;;;;6187563;28;20298;-81
2022/03/30 13:38:26;;;;;;;0.90;0.90;;;3.70;40.90;;;;;;6187430;28;20297;-80
2022/03/30 13:41:31;;;;;;;0.80;0.80;;;3.80;40.40;;;;;;6170064;28;20289;-81
2022/03/30 13:44:37;;;;;;;0.80;0.80;;;3.80;40.80;;;;;;6186622;28;20601;-81
2022/03/30 13:47:43;;;;;;;4.30;0.97;;;3.80;41.30;;;;;;6186739;28;20299;-81
2022/03/30 13:50:50;;;;;;;0.70;0.70;;;3.80;41.40;;;;;;6169578;28;20561;-82
2022/03/30 13:53:57;;;;;;;0.90;0.90;;;3.80;42.00;;;;;;6186690;28;20471;-82
2022/03/30 13:57:02;;;;;;;2.30;0.97;;;3.50;43.80;;;;;;6186269;28;20295;-81
2022/03/30 14:00:12;;;;;;;3.30;1.10;;;3.30;44.00;;;;;;6185968;28;20298;-80
2022/03/30 14:03:17;;;;;;;3.83;1.03;;;3.20;44.70;;;;;;6186343;28;20287;-81
2022/03/30 14:06:23;;;;;;;7.13;0.90;;;3.20;44.40;;;;;;6170113;28;20290;-81
2022/03/30 14:09:31;;;;;;;0.90;0.90;;;3.30;43.60;;;;;;6185930;28;20293;-81
2022/03/30 14:12:37;;;;;;;0.80;0.80;;;3.40;43.90;;;;;;6185765;28;20310;-81
2022/03/30 14:15:42;;;;;;;3.40;0.90;;;3.60;43.70;;;;;;6184939;28;20308;-81
2022/03/30 14:18:48;;;;;;;2.23;1.13;;;3.70;42.30;;;;;;6186130;28;20301;-81
2022/03/30 14:21:54;;;;;;;0.97;0.97;;;3.60;41.90;;;;;;6169293;28;20301;-81
2022/03/30 14:25:01;;;;;;;3.30;1.03;;;3.60;41.70;;;;;;6186319;28;20292;-81
2022/03/30 14:28:10;;;;;;;1.07;0.80;;;3.60;42.60;;;;;;6185105;28;20301;-81
2022/03/30 14:31:16;;;;;;;0.90;0.90;;;3.60;43.10;;;;;;6185580;28;20300;-81
2022/03/30 14:34:22;;;;;;;3.07;1.00;;;3.50;45.40;;;;;;6185113;28;20294;-81
2022/03/30 14:37:28;;;;;;;1.20;1.10;;;3.60;47.30;;;;;;6185691;28;20428;-81
2022/03/30 14:40:35;;;;;;;0.90;0.90;;;3.60;47.40;;;;;;6185825;28;20289;-81
2022/03/30 14:43:41;;;;;;;1.37;1.00;;;3.70;47.40;;;;;;6185457;28;20293;-81
2022/03/30 14:46:46;;;;;;;1.80;0.93;;;3.60;47.10;;;;;;6186237;28;20294;-81
2022/03/30 14:49:57;;;;;;;0.97;0.97;;;3.50;47.00;;;;;;6169612;28;20315;-81
2022/03/30 14:53:02;;;;;;;1.23;1.10;;;3.30;48.50;;;;;;6168108;28;20294;-80
2022/03/30 14:56:10;;;;;;;1.10;1.10;;;3.40;47.90;;;;;;6168691;28;20557;-80
2022/03/30 14:59:17;;;;;;;0.90;0.90;;;3.50;46.50;;;;;;6178523;28;20571;-81
2022/03/30 15:02:23;;;;;;;1.37;1.27;;;3.50;46.80;;;;;;6176804;28;20297;-81
2022/03/30 15:05:28;;;;;;;0.97;0.97;;;3.50;46.30;;;;;;6185213;28;20461;-81
2022/03/30 15:08:34;;;;;;;1.60;1.00;;;3.50;49.10;;;;;;6184766;28;20291;-82
2022/03/30 15:11:42;;;;;;;0.80;0.80;;;3.20;49.60;;;;;;6185033;28;20301;-81
2022/03/30 15:14:48;;;;;;;1.13;0.97;;;3.30;50.90;;;;;;6184734;28;20301;-82
2022/03/30 15:17:53;;;;;;;1.40;1.00;;;3.40;52.00;;;;;;6184765;28;20297;-82
2022/03/30 15:20:59;;;;;;;1.00;1.00;;;3.30;54.20;;;;;;6168014;28;20465;-81
2022/03/30 15:24:06;;;;;;;1.00;1.00;;;3.20;55.20;;;;;;6184815;28;20293;-82
2022/03/30 15:27:14;;;;;;;1.10;1.10;;;3.00;55.80;;;;;;6184544;28;20289;-82
2022/03/30 15:30:19;;;;;;;1.30;0.90;;;3.00;56.30;;;;;;6167532;28;20292;-81
2022/03/30 15:33:26;;;;;;;1.10;1.10;;;3.00;58.00;;;;;;6184517;28;20296;-82
2022/03/30 15:36:32;;;;;;;1.00;1.00;;;2.90;58.50;;;;;;6184907;28;20294;-82
2022/03/30 15:39:37;;;;;;;1.20;1.10;;;2.90;58.40;;;;;;6167134;28;20298;-82
2022/03/30 15:42:44;;;;;;;1.00;1.00;;;2.80;56.50;;;;;;6166857;28;20312;-82
2022/03/30 15:45:50;;;;;;;1.50;1.03;;;2.70;57.20;;;;;;6184867;28;20298;-81
2022/03/30 15:48:55;;;;;;;1.53;1.43;;;2.60;56.80;;;;;;6167779;28;20298;-82
2022/03/30 15:52:01;;;;;;;1.20;1.20;;;2.70;56.30;;;;;;6184772;28;20572;-82
2022/03/30 15:55:08;;;;;;;2.33;1.33;;;2.60;54.00;;;;;;6185352;28;20292;-81
2022/03/30 15:58:15;;;;;;;1.40;1.30;;;2.60;54.40;;;;;;6184325;28;20310;-81
2022/03/30 16:01:21;;;;;;;1.13;1.07;;;2.60;54.90;;;;;;6184694;28;20293;-81
2022/03/30 16:04:27;;;;;;;1.80;1.70;;;2.50;54.70;;;;;;6185028;28;20387;-81
2022/03/30 16:07:33;;;;;;;3.20;1.20;;;2.50;55.00;;;;;;6184900;28;20575;-82
2022/03/30 16:10:39;;;;;;;1.20;1.20;;;2.50;56.80;;;;;;6185340;28;20293;-81
2022/03/30 16:13:47;;;;;;;0.93;0.93;;;2.40;59.70;;;;;;6184813;28;20309;-81
2022/03/30 16:16:52;;;;;;;0.90;0.90;;;2.30;61.90;;;;;;6185186;28;20298;-81
2022/03/30 16:20:17;;;;;;;5.50;1.20;;;2.40;65.90;;;;;;6185105;28;20305;-81
2022/03/30 16:23:24;;;;;;;1.13;1.10;;;2.30;69.10;;;;;;6178156;28;20305;-80
2022/03/30 16:26:29;;;;;;;1.87;1.20;;;2.30;69.60;;;;;;6190649;28;20300;-81
2022/03/30 16:29:37;;;;;;;3.20;1.00;;;2.30;69.30;;;;;;6188614;28;20292;-81